01:06 Rennrad Moetz - Pettnau - Zirl - Kematen - Voels - Radweg - Innsbruck ARZ
Ort Moetz Datum 24.08.2017 06:24:34
Kategorie Rennrad
Distanz 39,13 Kilometer Steigung 82,0 Meter Gefälle -140,0 Meter
Gesamt Zeit 01:05:44 Aktiv 01:05:44 Pause 00:00:00
Durchs. Tempo 35,7 km/h Tempo max. 49,8 km/h Tempo min. 20,0 km/h
Kalorien 0 Durchs. HF 134 BPM HF max. 152 BPM
Wetter 13 °C ChanceThunder Min/Max: 12,7 °C/13,3 °C; Druck: 1020,9 mbar; Rel. Feuchte: 92,6%; Taupunkt: 12,6 °C; Windgeschwindigkeit: 0,3 km/h; Niederschlag: 0,0mm
Ausrüstung Bontrager - RL Road
Scott - Addict 20
Shimano - CN-HG601-11
Notiz Moetz - Pettnau - Zirl - Kematen - Voels - Radweg - Innsbruck ARZ ... trocken, frisch, leichter Rueckenwind - flott ... garmin connect
Splits
Distanz (km) Gesamt Zeit Split Zeit Split Tempo Split Tempo Höhenprofil (m)
1,00 00:01:59 00:01:59 00:01:59 30,2 -10,16
2,00 00:03:46 00:01:46 00:01:47 33,7 0,40
3,00 00:05:25 00:01:39 00:01:39 36,2 -0,68
4,00 00:07:05 00:01:39 00:01:39 36,2 -3,87
5,00 00:08:42 00:01:37 00:01:37 36,9 0,66
6,00 00:10:19 00:01:37 00:01:37 37,0 -0,53
7,00 00:11:57 00:01:37 00:01:37 37,0 -1,00
8,00 00:13:29 00:01:32 00:01:32 39,0 -7,47
9,00 00:15:07 00:01:38 00:01:38 36,6 -2,73
10,00 00:16:53 00:01:45 00:01:46 34,1 0,58
11,00 00:18:29 00:01:36 00:01:36 37,4 0,65
12,00 00:20:06 00:01:36 00:01:37 37,1 -6,44
13,00 00:21:40 00:01:33 00:01:33 38,5 -0,08
14,00 00:23:25 00:01:45 00:01:46 34,0 0,03
15,00 00:25:12 00:01:46 00:01:47 33,7 -4,61
16,00 00:26:44 00:01:32 00:01:32 39,1 3,52
17,00 00:28:24 00:01:39 00:01:40 36,0 -8,04
18,00 00:30:04 00:01:39 00:01:39 36,2 0,00
19,00 00:31:47 00:01:43 00:01:43 34,8 -0,50
20,00 00:33:30 00:01:42 00:01:43 35,0 -0,87
21,00 00:35:12 00:01:42 00:01:43 35,1 -3,08
22,00 00:36:48 00:01:35 00:01:36 37,7 -4,16
23,00 00:38:40 00:01:52 00:01:52 32,1 10,52
24,00 00:40:19 00:01:38 00:01:39 36,5 0,56
25,00 00:42:41 00:02:22 00:02:23 25,2 16,06
26,00 00:44:11 00:01:29 00:01:29 40,3 -9,98
27,00 00:45:31 00:01:19 00:01:20 45,1 -29,60
28,00 00:47:05 00:01:34 00:01:34 38,3 3,80
29,00 00:48:49 00:01:43 00:01:44 34,6 0,54
30,00 00:50:28 00:01:39 00:01:39 36,3 -2,59
31,00 00:51:57 00:01:28 00:01:29 40,5 -3,21
32,00 00:53:26 00:01:29 00:01:29 40,2 -1,07
33,00 00:55:02 00:01:36 00:01:36 37,5 2,01
34,00 00:56:57 00:01:55 00:01:55 31,3 -8,02
35,00 00:58:38 00:01:40 00:01:40 35,9 -3,66
36,00 01:00:19 00:01:41 00:01:42 35,4 -1,98
37,00 01:01:58 00:01:39 00:01:39 36,4 -1,99
38,00 01:03:43 00:01:44 00:01:44 34,5 0,81
39,00 01:05:26 00:01:43 00:01:43 34,8 6,41
39,15 01:05:44 00:00:17 00:01:53 31,9 0,00